Maersk Rosario — V2BG2 — position and weather

sailwx.info

Track history (hours):
 
Tides and Currents Weather Stations Pressure Air Temp Water Temp Dewpoint Dewpoint Depression Visibility Wind Speed Wind Dir Waves Ship Positions

Maersk Rosario

Last reported at 2015-Aug-22 08:30 UTC. Time now 2015-Sep-02 06:31 UTC.
Position N 25°49' W 079°47'.
Warning: this ship's position is 10 days out of date.

Length 161.1 m; beam 25 m; draft 9.5 m.

Type: Ship (hazmat cat A). MMSI: 304814000.

Date/timePositionNaut miles runAvg speedWind from/ knotsBaromVisibWave heightAir tempDewpointWater temp
2015-Aug-22 08:30N 25°49' W 079°47'9 9.8
2015-Aug-22 07:34N 25°56' W 079°54'1111.1
2015-Aug-22 06:33N 26°04' W 080°03'4 3.9
2015-Aug-22 05:32N 26°04' W 080°07'0 0.0
2015-Aug-22 04:32N 26°04' W 080°07'0 0.0
2015-Aug-22 03:23N 26°04' W 080°07'0 0.0
2015-Aug-22 02:26N 26°04' W 080°07'0 0.0
2015-Aug-22 01:26N 26°04' W 080°07'0 0.0
2015-Aug-22 00:26N 26°04' W 080°07'0 0.0
2015-Aug-21 23:29N 26°04' W 080°07'0 0.0
2015-Aug-21 22:29N 26°04' W 080°07'0 0.0
2015-Aug-21 21:29N 26°04' W 080°07'0 0.0
2015-Aug-21 20:32N 26°04' W 080°07'0 0.0
2015-Aug-21 19:29N 26°04' W 080°07'0 0.0
2015-Aug-21 18:32N 26°04' W 080°07'0 0.0
2015-Aug-21 17:32N 26°04' W 080°07'0 0.0
2015-Aug-21 16:32N 26°04' W 080°07'0 0.0
2015-Aug-21 15:32N 26°04' W 080°07'0 0.0
2015-Aug-21 14:32N 26°04' W 080°07'0 0.0
2015-Aug-21 13:23N 26°04' W 080°07'0 0.0
2015-Aug-21 12:26N 26°04' W 080°07'0 0.0
2015-Aug-21 11:26N 26°04' W 080°07'0 0.0
2015-Aug-21 10:26N 26°04' W 080°07'1 1.3
2015-Aug-21 09:33N 26°05' W 080°07'10 9.5
2015-Aug-21 08:33N 26°02' W 079°57'6 5.7
2015-Aug-21 07:34N 25°57' W 079°54'1818.0
2015-Aug-21 06:33N 25°42' W 079°42'  
Track history (hours):
 
Tides and Currents Weather Stations Pressure Air Temp Water Temp Dewpoint Dewpoint Depression Visibility Wind Speed Wind Dir Waves Ship Positions

Maersk Rosario

Last reported at 2015-Aug-22 08:30 UTC. Time now 2015-Sep-02 06:31 UTC.
Position N 25°49' W 079°47'.
Warning: this ship's position is 10 days out of date.

Length 161.1 m; beam 25 m; draft 9.5 m.

Type: Ship (hazmat cat A). MMSI: 304814000.

Date/timePositionNaut miles runAvg speedWind from/ knotsBaromVisibWave heightAir tempDewpointWater temp
2015-Aug-22 08:30N 25°49' W 079°47'9 9.8
2015-Aug-22 07:34N 25°56' W 079°54'1111.1
2015-Aug-22 06:33N 26°04' W 080°03'4 3.9
2015-Aug-22 05:32N 26°04' W 080°07'0 0.0
2015-Aug-22 04:32N 26°04' W 080°07'0 0.0
2015-Aug-22 03:23N 26°04' W 080°07'0 0.0
2015-Aug-22 02:26N 26°04' W 080°07'0 0.0
2015-Aug-22 01:26N 26°04' W 080°07'0 0.0
2015-Aug-22 00:26N 26°04' W 080°07'0 0.0
2015-Aug-21 23:29N 26°04' W 080°07'0 0.0
2015-Aug-21 22:29N 26°04' W 080°07'0 0.0
2015-Aug-21 21:29N 26°04' W 080°07'0 0.0
2015-Aug-21 20:32N 26°04' W 080°07'0 0.0
2015-Aug-21 19:29N 26°04' W 080°07'0 0.0
2015-Aug-21 18:32N 26°04' W 080°07'0 0.0
2015-Aug-21 17:32N 26°04' W 080°07'0 0.0
2015-Aug-21 16:32N 26°04' W 080°07'0 0.0
2015-Aug-21 15:32N 26°04' W 080°07'0 0.0
2015-Aug-21 14:32N 26°04' W 080°07'0 0.0
2015-Aug-21 13:23N 26°04' W 080°07'0 0.0
2015-Aug-21 12:26N 26°04' W 080°07'0 0.0
2015-Aug-21 11:26N 26°04' W 080°07'0 0.0
2015-Aug-21 10:26N 26°04' W 080°07'1 1.3
2015-Aug-21 09:33N 26°05' W 080°07'10 9.5
2015-Aug-21 08:33N 26°02' W 079°57'6 5.7
2015-Aug-21 07:34N 25°57' W 079°54'1818.0
2015-Aug-21 06:33N 25°42' W 079°42'  

Dump ship's entire track history